createdAt,value
2018-02-22T00:01:52.939Z,2.37
2018-02-22T00:04:22.070Z,2.41
2018-02-22T00:06:52.105Z,2.37
2018-02-22T00:09:22.021Z,2.31
2018-02-22T00:11:51.170Z,2.35
2018-02-22T00:14:20.290Z,2.34
2018-02-22T00:16:50.150Z,2.44
2018-02-22T00:19:19.268Z,2.37
2018-02-22T00:21:48.366Z,2.41
2018-02-22T00:24:17.454Z,2.40
2018-02-22T00:26:46.579Z,2.33
2018-02-22T00:29:15.689Z,2.37
2018-02-22T00:31:44.808Z,2.38
2018-02-22T00:34:13.898Z,2.31
2018-02-22T00:36:43.024Z,2.31
2018-02-22T00:39:12.112Z,2.31
2018-02-22T00:41:41.222Z,2.27
2018-02-22T00:44:10.334Z,2.26
2018-02-22T00:46:39.453Z,2.29
2018-02-22T00:49:08.540Z,2.25
2018-02-22T00:51:37.643Z,2.26
2018-02-22T00:54:06.740Z,2.30
2018-02-22T00:56:35.869Z,2.15
2018-02-22T00:59:05.732Z,2.15
2018-02-22T01:01:34.828Z,2.09
2018-02-22T01:04:03.954Z,2.08
2018-02-22T01:06:33.846Z,2.07
2018-02-22T01:09:02.953Z,2.04
2018-02-22T01:11:32.046Z,2.05
2018-02-22T01:14:01.158Z,1.95
2018-02-22T01:16:31.386Z,2.00
2018-02-22T01:19:01.250Z,2.01
2018-02-22T01:21:30.369Z,2.09
2018-02-22T01:23:59.454Z,2.06
2018-02-22T01:26:28.585Z,2.01
2018-02-22T01:28:58.437Z,2.05
2018-02-22T01:31:28.694Z,2.07
2018-02-22T01:33:57.783Z,1.99
2018-02-22T01:36:26.885Z,2.05
2018-02-22T01:38:55.984Z,2.11
2018-02-22T01:41:25.078Z,2.03
2018-02-22T01:43:54.196Z,2.03
2018-02-22T01:46:24.090Z,2.05
2018-02-22T01:48:53.173Z,2.08
2018-02-22T01:51:22.302Z,2.05
2018-02-22T01:53:52.184Z,2.06
2018-02-22T01:56:21.290Z,2.01
2018-02-22T01:58:50.406Z,2.01
2018-02-22T02:01:19.503Z,2.07
2018-02-22T02:03:48.605Z,2.06
2018-02-22T02:06:18.462Z,2.02
2018-02-22T02:08:47.607Z,1.93
2018-02-22T02:11:16.695Z,1.91
2018-02-22T02:13:45.823Z,1.94
2018-02-22T02:16:16.281Z,1.79
2018-02-22T02:18:45.386Z,1.81
2018-02-22T02:21:14.501Z,1.80
2018-02-22T02:23:43.601Z,1.88
2018-02-22T02:26:12.722Z,1.85
2018-02-22T02:28:41.818Z,1.83
2018-02-22T02:31:11.698Z,1.83
2018-02-22T02:33:40.796Z,1.96
2018-02-22T02:36:10.684Z,1.81
2018-02-22T02:38:39.771Z,1.74
2018-02-22T02:41:08.898Z,1.74
2018-02-22T02:43:38.018Z,1.73
2018-02-22T02:46:07.118Z,1.81
2018-02-22T02:48:37.282Z,1.75
2018-02-22T02:51:06.387Z,1.76
2018-02-22T02:53:36.339Z,1.80
2018-02-22T02:56:05.454Z,1.77
2018-02-22T02:58:35.297Z,1.71
2018-02-22T03:01:04.404Z,1.62
2018-02-22T03:03:33.522Z,1.70
2018-02-22T03:06:03.420Z,1.76
2018-02-22T03:08:32.566Z,1.76
2018-02-22T03:11:01.673Z,1.76
2018-02-22T03:13:31.556Z,1.73
2018-02-22T03:16:00.680Z,1.69
2018-02-22T03:18:30.549Z,1.68
2018-02-22T03:21:00.458Z,1.73
2018-02-22T03:23:29.584Z,1.73
2018-02-22T03:25:58.674Z,1.69
2018-02-22T03:28:27.797Z,1.75
2018-02-22T03:30:57.664Z,1.68
2018-02-22T03:33:26.803Z,1.69
2018-02-22T03:35:56.682Z,1.65
2018-02-22T03:38:26.543Z,1.65
2018-02-22T03:40:56.402Z,1.64
2018-02-22T03:43:26.272Z,1.68
2018-02-22T03:45:56.148Z,1.62
2018-02-22T03:48:25.233Z,1.59
2018-02-22T03:50:54.345Z,1.67
2018-02-22T03:53:24.954Z,1.65
2018-02-22T03:55:54.069Z,1.69
2018-02-22T03:58:23.165Z,1.57
2018-02-22T04:00:52.286Z,1.51
2018-02-22T04:03:22.150Z,1.55
2018-02-22T04:05:51.258Z,1.51
2018-02-22T04:08:20.376Z,1.55
2018-02-22T04:10:49.459Z,1.50
2018-02-22T04:13:18.596Z,1.43
2018-02-22T04:15:48.445Z,1.47
2018-02-22T04:18:17.552Z,1.42
2018-02-22T04:20:46.657Z,1.45
2018-02-22T04:23:15.731Z,1.47
2018-02-22T04:25:44.834Z,1.40
2018-02-22T04:28:13.930Z,1.45
2018-02-22T04:30:43.076Z,1.48
2018-02-22T04:33:12.947Z,1.43
2018-02-22T04:35:42.033Z,1.35
2018-02-22T04:38:11.155Z,1.37
2018-02-22T04:40:40.257Z,1.50
2018-02-22T04:43:09.354Z,1.48
2018-02-22T04:45:38.484Z,1.40
2018-02-22T04:48:08.358Z,1.46
2018-02-22T04:50:38.957Z,1.48
2018-02-22T04:53:08.063Z,1.46
2018-02-22T04:55:37.157Z,1.51
2018-02-22T04:58:06.278Z,1.52
2018-02-22T05:00:36.418Z,1.50
2018-02-22T05:03:05.499Z,1.45
2018-02-22T05:05:34.623Z,1.47
2018-02-22T05:08:04.491Z,1.52
2018-02-22T05:10:33.640Z,1.55
2018-02-22T05:13:03.489Z,1.52
2018-02-22T05:15:32.605Z,1.50
2018-02-22T05:18:01.720Z,1.48
2018-02-22T05:20:30.831Z,1.40
2018-02-22T05:23:00.698Z,1.35
2018-02-22T05:25:29.806Z,1.39
2018-02-22T05:27:58.929Z,1.37
2018-02-22T05:30:28.034Z,1.36
2018-02-22T05:32:57.909Z,1.36
2018-02-22T05:35:27.038Z,1.34
2018-02-22T05:37:56.912Z,1.41
2018-02-22T05:40:26.023Z,1.37
2018-02-22T05:42:55.135Z,1.42
2018-02-22T05:45:24.251Z,1.32
2018-02-22T05:47:54.131Z,1.38
2018-02-22T05:50:23.222Z,1.36
2018-02-22T05:52:52.338Z,1.35
2018-02-22T05:55:22.224Z,1.36
2018-02-22T05:57:51.363Z,1.37
2018-02-22T06:00:21.237Z,1.41
2018-02-22T06:02:50.326Z,1.39
2018-02-22T06:05:19.435Z,1.38
2018-02-22T06:07:48.592Z,1.32
2018-02-22T06:10:18.412Z,1.33
2018-02-22T06:12:47.523Z,1.32
2018-02-22T06:15:16.601Z,1.24
2018-02-22T06:17:45.738Z,1.29
2018-02-22T06:20:14.843Z,1.27
2018-02-22T06:22:43.952Z,1.29
2018-02-22T06:25:13.828Z,1.29
2018-02-22T06:27:42.939Z,1.31
2018-02-22T06:30:12.059Z,1.33
2018-02-22T06:32:41.945Z,1.29
2018-02-22T06:35:11.109Z,1.31
2018-02-22T06:37:40.247Z,1.36
2018-02-22T06:40:09.348Z,1.29
2018-02-22T06:42:38.469Z,1.31
2018-02-22T06:45:08.339Z,1.25
2018-02-22T06:47:37.462Z,1.25
2018-02-22T06:50:07.347Z,1.21
2018-02-22T06:52:36.435Z,1.30
2018-02-22T06:55:05.548Z,1.22
2018-02-22T06:57:34.635Z,1.29
2018-02-22T07:00:03.771Z,1.26
2018-02-22T07:02:32.877Z,1.26
2018-02-22T07:05:02.759Z,1.22
2018-02-22T07:07:31.888Z,1.13
2018-02-22T07:10:01.789Z,1.17
2018-02-22T07:12:30.904Z,1.24
2018-02-22T07:15:00.775Z,1.19
2018-02-22T07:17:29.882Z,1.24
2018-02-22T07:19:59.018Z,1.25
2018-02-22T07:22:28.136Z,1.21
2018-02-22T07:24:57.235Z,1.28
2018-02-22T07:27:26.397Z,1.20
2018-02-22T07:29:56.258Z,1.20
2018-02-22T07:32:25.360Z,1.24
2018-02-22T07:34:54.477Z,1.27
2018-02-22T07:37:23.602Z,1.18
2018-02-22T07:39:53.466Z,1.16
2018-02-22T07:42:22.585Z,1.24
2018-02-22T07:44:51.681Z,1.27
2018-02-22T07:47:21.072Z,1.28
2018-02-22T07:49:50.161Z,1.25
2018-02-22T07:52:19.264Z,1.33
2018-02-22T07:54:48.392Z,1.28
2018-02-22T07:57:19.030Z,1.30
2018-02-22T07:59:48.881Z,1.36
2018-02-22T08:02:17.991Z,1.30
2018-02-22T08:04:47.079Z,1.33
2018-02-22T08:07:16.208Z,1.35
2018-02-22T08:09:45.325Z,1.36
2018-02-22T08:12:15.198Z,1.38
2018-02-22T08:14:44.302Z,1.44
2018-02-22T08:17:13.428Z,1.39
2018-02-22T08:19:42.531Z,1.42
2018-02-22T08:22:12.416Z,1.42
2018-02-22T08:24:41.504Z,1.46
2018-02-22T08:27:10.634Z,1.44
2018-02-22T08:29:40.508Z,1.45
2018-02-22T08:32:09.693Z,1.53
2018-02-22T08:34:38.819Z,1.58
2018-02-22T08:37:07.932Z,1.60
2018-02-22T08:39:37.022Z,1.66
2018-02-22T08:42:06.910Z,1.72
2018-02-22T08:44:36.011Z,1.75
2018-02-22T08:47:05.132Z,1.90
2018-02-22T11:18:51.494Z,4.21
2018-02-22T11:21:39.370Z,4.12
2018-02-22T11:24:13.843Z,4.19
2018-02-22T11:26:57.296Z,4.24
2018-02-22T11:29:38.635Z,4.27
2018-02-22T11:32:16.734Z,4.30
2018-02-22T11:34:53.418Z,4.22
2018-02-22T11:37:30.351Z,4.16
2018-02-22T11:40:06.333Z,4.09
2018-02-22T11:42:43.211Z,4.05
2018-02-22T11:45:19.299Z,4.15
2018-02-22T11:47:53.855Z,4.19
2018-02-22T11:50:29.532Z,4.29
2018-02-22T11:53:03.997Z,4.39
2018-02-22T11:55:39.566Z,4.41
2018-02-22T11:58:14.541Z,4.48
2018-02-22T12:00:49.715Z,4.47
2018-02-22T12:03:25.392Z,4.47
2018-02-22T12:06:01.704Z,4.56
2018-02-22T12:08:36.805Z,4.59
2018-02-22T12:11:12.342Z,4.69
2018-02-22T12:13:47.205Z,4.69
2018-02-22T12:16:22.931Z,4.72
2018-02-22T12:21:38.518Z,4.81
2018-02-22T12:24:14.597Z,4.95
2018-02-22T12:26:45.624Z,4.95
2018-02-22T12:29:14.889Z,5.03
2018-02-22T12:31:44.163Z,5.07
2018-02-22T12:34:13.227Z,5.01
2018-02-22T12:36:42.729Z,5.03
2018-02-22T12:39:11.895Z,5.02
2018-02-22T12:41:41.052Z,5.08
2018-02-22T12:44:10.294Z,5.19
2018-02-22T12:46:39.524Z,5.21
2018-02-22T12:49:08.987Z,5.29
2018-02-22T12:51:38.892Z,5.32
2018-02-22T12:54:08.441Z,5.36
2018-02-22T12:56:37.789Z,5.25
2018-02-22T12:59:06.837Z,5.12
2018-02-22T13:01:36.227Z,5.13
2018-02-22T13:04:05.399Z,5.19
2018-02-22T13:06:35.367Z,5.26
2018-02-22T13:09:04.485Z,5.43
2018-02-22T13:11:33.554Z,5.36
2018-02-22T13:14:02.644Z,5.25
2018-02-22T13:16:31.714Z,5.33
2018-02-22T13:19:00.789Z,5.33
2018-02-22T13:21:30.844Z,5.58
2018-02-22T13:23:59.937Z,5.59
2018-02-22T13:26:29.524Z,5.41
2018-02-22T13:28:59.492Z,5.48
2018-02-22T13:31:28.901Z,5.64
2018-02-22T13:34:16.181Z,5.76
2018-02-22T13:36:45.357Z,5.82
2018-02-22T13:39:15.307Z,5.75
2018-02-22T13:41:44.743Z,5.64
2018-02-22T13:44:31.755Z,5.80
2018-02-22T13:47:01.025Z,5.92
2018-02-22T13:49:47.810Z,5.92
2018-02-22T13:52:17.711Z,5.72
2018-02-22T13:54:46.989Z,5.79
2018-02-22T13:57:20.267Z,5.82
2018-02-22T13:59:49.378Z,5.97
2018-02-22T14:02:33.374Z,5.83
2018-02-22T14:05:02.743Z,5.81
2018-02-22T14:07:32.124Z,5.90
2018-02-22T14:10:01.207Z,5.87
2018-02-22T14:12:30.437Z,6.00
2018-02-22T14:14:59.523Z,5.96
2018-02-22T14:17:28.630Z,5.99
2018-02-22T14:19:57.953Z,5.86
2018-02-22T14:22:28.694Z,5.92
2018-02-22T14:24:57.818Z,6.08
2018-02-22T14:27:26.973Z,6.21
2018-02-22T14:29:56.159Z,6.31
2018-02-22T14:32:25.289Z,6.40
2018-02-22T14:34:55.403Z,6.62
2018-02-22T14:37:24.563Z,6.53
2018-02-22T14:39:53.682Z,6.50
2018-02-22T14:42:23.864Z,6.66
2018-02-22T14:44:54.361Z,6.74
2018-02-22T14:47:23.789Z,7.35
2018-02-22T14:49:53.912Z,8.11
2018-02-22T14:52:27.889Z,10.55
2018-02-22T14:54:59.331Z,11.50
2018-02-22T14:57:31.441Z,11.38
2018-02-22T15:00:00.797Z,12.34
2018-02-22T15:02:30.476Z,12.61
2018-02-22T15:05:00.511Z,13.39
2018-02-22T15:07:30.371Z,14.47
2018-02-22T15:09:59.705Z,14.20
2018-02-22T15:12:28.832Z,11.43
2018-02-22T15:15:00.316Z,10.10
2018-02-22T15:17:29.622Z,8.85
2018-02-22T15:19:59.095Z,8.16
2018-02-22T15:22:28.244Z,8.36
2018-02-22T15:24:57.442Z,9.35
2018-02-22T15:27:26.549Z,9.18
2018-02-22T15:29:57.221Z,8.12
2018-02-22T15:32:35.020Z,7.75
2018-02-22T15:35:04.416Z,9.11
2018-02-22T15:37:34.524Z,9.73
2018-02-22T15:40:04.299Z,8.38
2018-02-22T15:42:33.606Z,7.43
2018-02-22T15:45:03.053Z,7.02
2018-02-22T15:47:36.972Z,8.33
2018-02-22T15:50:09.303Z,8.78
2018-02-22T15:52:38.864Z,8.51
2018-02-22T15:55:07.990Z,7.98
2018-02-22T15:57:38.888Z,7.27
2018-02-22T16:00:08.219Z,6.67
2018-02-22T16:02:37.517Z,6.37
2018-02-22T16:05:06.895Z,6.18
2018-02-22T16:07:36.253Z,6.03
2018-02-22T16:10:05.343Z,5.91
2018-02-22T16:12:34.610Z,5.73
2018-02-22T16:15:03.971Z,5.55
2018-02-22T16:17:34.904Z,5.44
2018-02-22T16:20:05.802Z,5.47
2018-02-22T16:22:34.933Z,5.44
2018-02-22T16:25:04.192Z,5.34
2018-02-22T16:27:33.698Z,5.34
2018-02-22T16:30:03.206Z,5.32
2018-02-22T16:32:32.400Z,5.33
2018-02-22T16:35:02.037Z,5.22
2018-02-22T16:37:31.105Z,5.20
2018-02-22T16:40:05.154Z,5.11
2018-02-22T16:42:35.381Z,5.07
2018-02-22T16:47:49.796Z,5.02
2018-02-22T16:50:20.992Z,5.01
2018-02-22T16:52:51.866Z,4.97
2018-02-22T16:55:24.294Z,4.90
2018-02-22T16:57:55.694Z,4.79
2018-02-22T17:00:36.574Z,4.75
2018-02-22T17:03:08.135Z,4.69
2018-02-22T17:05:40.524Z,4.63
2018-02-22T17:08:11.733Z,4.55
2018-02-22T17:10:49.528Z,4.53
2018-02-22T17:13:21.097Z,4.52
2018-02-22T17:15:52.067Z,4.52
2018-02-22T17:18:22.440Z,4.55
2018-02-22T17:20:54.521Z,4.48
2018-02-22T17:23:25.619Z,4.48
2018-02-22T17:26:03.442Z,4.46
2018-02-22T17:28:40.640Z,4.43
2018-02-22T17:31:16.136Z,4.43
2018-02-22T17:33:45.427Z,4.41
2018-02-22T17:49:46.228Z,4.30
2018-02-22T17:52:18.497Z,4.29
2018-02-22T17:54:50.252Z,4.23
2018-02-22T17:57:21.232Z,4.26
2018-02-22T17:59:53.990Z,4.19
2018-02-22T18:02:25.587Z,4.14
2018-02-22T18:04:54.633Z,4.21
2018-02-22T18:07:23.772Z,4.11
2018-02-22T18:09:54.041Z,4.11
2018-02-22T18:12:23.874Z,4.04
2018-02-22T18:14:53.384Z,4.02
2018-02-22T18:17:22.649Z,4.01
2018-02-22T18:19:52.493Z,4.03
2018-02-22T18:22:21.620Z,3.96
2018-02-22T18:24:53.865Z,3.99
2018-02-22T18:27:23.433Z,3.95
2018-02-22T18:29:52.594Z,4.03
2018-02-22T18:32:21.935Z,4.01
2018-02-22T18:34:51.504Z,3.89
2018-02-22T18:37:26.203Z,3.89
2018-02-22T18:39:55.332Z,3.84
2018-02-22T18:42:24.576Z,3.82
2018-02-22T18:44:59.186Z,3.75
2018-02-22T18:47:28.785Z,3.72
2018-02-22T18:49:58.669Z,3.74
2018-02-22T18:52:28.505Z,3.69
2018-02-22T18:54:57.622Z,3.65
2018-02-22T18:57:27.500Z,3.66
2018-02-22T18:59:57.638Z,3.53
2018-02-22T19:02:27.100Z,3.56
2018-02-22T19:04:57.973Z,3.57
2018-02-22T19:07:27.098Z,3.54
2018-02-22T19:09:56.218Z,3.55
2018-02-22T19:12:25.346Z,3.58
2018-02-22T19:14:54.451Z,3.63
2018-02-22T19:17:23.588Z,3.56
2018-02-22T19:19:52.712Z,3.55
2018-02-22T19:22:24.318Z,3.57
2018-02-22T19:24:54.204Z,3.51
2018-02-22T19:27:23.335Z,3.48
2018-02-22T19:29:53.224Z,3.47
2018-02-22T19:32:22.382Z,3.51
2018-02-22T19:34:51.509Z,3.49
2018-02-22T19:37:20.660Z,3.46
2018-02-22T19:39:50.548Z,3.46
2018-02-22T19:42:20.474Z,3.43
2018-02-22T19:44:50.367Z,3.27
2018-02-22T19:47:19.493Z,3.35
2018-02-22T19:49:48.607Z,3.30
2018-02-22T19:52:17.764Z,3.40
2018-02-22T19:54:47.662Z,3.43
2018-02-22T19:57:16.752Z,3.40
2018-02-22T19:59:49.626Z,3.35
2018-02-22T20:02:18.719Z,3.25
2018-02-22T20:04:47.846Z,3.29
2018-02-22T20:07:16.979Z,3.28
2018-02-22T20:09:46.104Z,3.33
2018-02-22T20:12:15.230Z,3.35
2018-02-22T20:14:44.349Z,3.28
2018-02-22T20:17:13.500Z,3.21
2018-02-22T20:19:42.658Z,3.17
2018-02-22T20:22:11.798Z,3.19
2018-02-22T20:24:40.899Z,3.24
2018-02-22T20:27:10.016Z,3.16
2018-02-22T20:29:39.924Z,3.24
2018-02-22T20:32:09.066Z,3.16
2018-02-22T20:34:38.210Z,3.17
2018-02-22T20:37:07.324Z,3.15
2018-02-22T20:39:37.219Z,3.14
2018-02-22T20:42:06.316Z,3.13
2018-02-22T20:44:35.468Z,3.15
2018-02-22T20:47:04.589Z,3.12
2018-02-22T20:49:33.763Z,3.09
2018-02-22T20:52:02.876Z,3.06
2018-02-22T20:54:31.991Z,3.04
2018-02-22T20:57:01.093Z,2.98
2018-02-22T20:59:30.197Z,2.93
2018-02-22T21:01:59.321Z,2.94
2018-02-22T21:04:28.431Z,2.94
2018-02-22T21:06:57.569Z,2.90
2018-02-22T21:09:26.664Z,2.89
2018-02-22T21:11:55.818Z,2.96
2018-02-22T21:14:24.925Z,2.95
2018-02-22T21:16:54.831Z,2.99
2018-02-22T21:19:23.967Z,3.01
2018-02-22T21:21:53.095Z,2.97
2018-02-22T21:24:22.977Z,3.02
2018-02-22T21:26:52.093Z,2.99
2018-02-22T21:29:21.204Z,2.98
2018-02-22T21:31:51.113Z,3.00
2018-02-22T21:34:21.000Z,3.10
2018-02-22T21:36:50.121Z,2.98
2018-02-22T21:39:19.231Z,3.04
2018-02-22T21:41:48.362Z,3.04
2018-02-22T21:44:17.472Z,3.07
2018-02-22T21:46:46.602Z,3.11
2018-02-22T21:49:16.502Z,3.16
2018-02-22T21:51:47.319Z,3.16
2018-02-22T21:54:16.419Z,3.09
2018-02-22T21:56:45.556Z,3.10
2018-02-22T21:59:15.414Z,3.09
2018-02-22T22:01:45.290Z,3.07
2018-02-22T22:04:14.406Z,3.00
2018-02-22T22:06:43.505Z,3.02
2018-02-22T22:09:12.640Z,2.99
2018-02-22T22:11:42.529Z,2.96
2018-02-22T22:14:11.665Z,2.97
2018-02-22T22:16:40.772Z,2.97
2018-02-22T22:19:10.452Z,2.93
2018-02-22T22:21:39.554Z,2.94
2018-02-22T22:24:08.680Z,2.89
2018-02-22T22:26:37.763Z,2.93
2018-02-22T22:29:08.059Z,2.92
2018-02-22T22:31:37.122Z,2.83
2018-02-22T22:34:06.854Z,2.87
2018-02-22T22:36:35.937Z,2.90
2018-02-22T22:39:05.223Z,2.94
2018-02-22T22:41:34.315Z,2.91
2018-02-22T22:44:03.460Z,2.93
2018-02-22T22:46:32.514Z,2.87
2018-02-22T22:49:01.623Z,2.86
2018-02-22T22:51:30.731Z,2.87
2018-02-22T22:54:00.077Z,2.87
2018-02-22T22:56:29.272Z,2.88
2018-02-22T22:58:58.442Z,2.87
2018-02-22T23:01:27.549Z,2.90
2018-02-22T23:03:56.716Z,2.82
2018-02-22T23:06:25.877Z,2.88
2018-02-22T23:08:55.814Z,2.79
2018-02-22T23:11:24.980Z,2.83
2018-02-22T23:13:54.105Z,2.82
2018-02-22T23:16:23.298Z,2.81
2018-02-22T23:18:53.296Z,2.83
2018-02-22T23:21:22.382Z,2.77
2018-02-22T23:23:52.303Z,2.81
2018-02-22T23:26:21.389Z,2.73
2018-02-22T23:28:50.488Z,2.74
2018-02-22T23:31:19.598Z,2.75
2018-02-22T23:33:49.481Z,2.75
2018-02-22T23:36:18.576Z,2.81
2018-02-22T23:38:55.931Z,2.83
2018-02-22T23:54:50.523Z,2.65
2018-02-22T23:57:19.639Z,2.65
2018-02-22T23:59:48.727Z,2.68
